Detalii statie SADELLI PRODCOM [00001D03]

Toti senzorii

Date Temperatura solului [C]Precipitatii [mm]Voltaj baterie [mV]Leaf Wetness [Min]HC Air temperature [C]HC Relative humidity [%]Punctul de roua [C]
medieminmaxsumaultimatimpmedieminmaxmediemediemin
2018-02-23 13:00:00 3.2 2.9 3.6 0 7088 3.5 3.04 3.8 0 0 0
2018-02-23 14:00:00 3.6 3.5 3.8 0 7128 3.6 3.4 3.8 0 0 0
2018-02-23 15:00:00 3.9 3.8 4.1 0 7196 3.91 3.5 4.25 0 0 0
2018-02-23 16:00:00 4.1 4 4.3 0 7098 4.18 4 4.41 0 0 0
2018-02-23 17:00:00 4.3 4.2 4.6 0 6972 3.74 3.42 4.05 0 0 0
2018-02-23 18:00:00 4 3.9 4.2 0 6874 2.66 2.09 3.26 0 0 0
2018-02-23 19:00:00 3.6 3.5 4 0 6826 1.59 1.21 2.03 0 0 0
2018-02-23 20:00:00 3.3 3.1 3.5 0 6796 0.8 0.47 1.23 0 0 0
2018-02-23 21:00:00 2.8 2.6 3.2 0 6776 -0.03 -0.41 0.36 0 0 0
2018-02-23 22:00:00 2.4 2.3 2.6 0 6756 -0.73 -0.99 -0.52 0 0 0
2018-02-23 23:00:00 2.2 2.1 2.5 0 6748 -1.28 -1.78 -1.04 0 0 0
2018-02-24 00:00:00 2 1.9 2.2 0 6718 -1.76 -1.9 -1.57 0 0 0
2018-02-24 01:00:00 1.8 1.8 1.9 0 6708 -1.84 -1.9 -1.76 0 0 0
2018-02-24 02:00:00 1.6 1.6 1.8 0 6708 -2.02 -2.15 -1.94 0 0 0
2018-02-24 03:00:00 1.4 1.3 1.6 0 6698 -2.36 -2.61 -2.17 0 0 0
2018-02-24 04:00:00 1.2 1.1 1.3 0 6688 -2.89 -3.23 -2.58 0 0 0
2018-02-24 05:00:00 1 1 1.2 0 6668 -3.55 -3.77 -3.35 0 0 0
2018-02-24 06:00:00 0.9 0.9 1 0 6678 -4.01 -4.25 -3.82 0 0 0
2018-02-24 07:00:00 0.8 0.7 0.9 0 6660 -4.75 -5.19 -4.24 0 0 0
2018-02-24 08:00:00 0.7 0.6 0.9 0 6678 -5.29 -5.4 -5.18 0 0 0
2018-02-24 09:00:00 0.6 0.5 0.8 0 7040 -4.38 -5.15 -3.49 0 0 0
2018-02-24 10:00:00 0.5 0.5 0.6 0 7206 -2.78 -3.47 -2.12 0 0 0
2018-02-24 11:00:00 0.7 0.6 1.1 0 7216 -1.66 -1.97 -1.02 0 0 0
2018-02-24 12:00:00 2.1 1.3 2.9 0 7216 -0.64 -1.14 -0.18 0 0 0
2018-02-24 13:00:00 3.8 3.3 4.4 0 7216 0.26 -0.45 1.03 0 0 0
2018-02-24 14:00:00 5.2 4.6 5.7 0 7216 0.96 -0.17 1.64 0 0 0
2018-02-24 15:00:00 5.8 5.7 6 0 7216 1.6 0.87 2.05 0 0 0
2018-02-24 16:00:00 5.9 5.8 6.1 0 7206 1.68 1.35 2.13 0 0 0
2018-02-24 17:00:00 5.5 5.1 5.8 0 7196 0.86 0.04 1.46 0 0 0
2018-02-24 18:00:00 4.2 3.6 5 0 6992 -1.26 -2.11 -0.05 0 0 0
2018-02-24 19:00:00 2.9 2.6 3.5 0 6864 -2.46 -2.7 -2.21 0 0 0
2018-02-24 20:00:00 2.2 2 2.6 0 6826 -2.94 -3.34 -2.72 0 0 0
2018-02-24 21:00:00 1.7 1.5 2 0 6786 -3.79 -3.93 -3.61 0 0 0
2018-02-24 22:00:00 1.4 1.2 1.5 0 6766 -4.23 -4.46 -4.03 0 0 0
2018-02-24 23:00:00 1.1 1 1.3 0 6766 -4.86 -5.1 -4.57 0 0 0
2018-02-25 00:00:00 1 0.9 1.1 0 6756 -5.48 -5.94 -5.2 0 0 0
2018-02-25 01:00:00 0.8 0.7 1 0 6748 -6.39 -6.79 -5.98 0 0 0
2018-02-25 02:00:00 0.7 0.7 0.9 0 6708 -7.1 -7.37 -6.87 0 0 0
2018-02-25 03:00:00 0.6 0.6 0.8 0 6698 -7.64 -7.87 -7.41 0 0 0
2018-02-25 04:00:00 0.5 0.5 0.7 0 6678 -8.08 -8.25 -7.9 0 0 0
2018-02-25 05:00:00 0.4 0.3 0.5 0 6668 -8.61 -8.83 -8.35 0 0 0
2018-02-25 06:00:00 0.3 0.3 0.5 0 6660 -8.82 -8.88 -8.78 0 0 0
2018-02-25 07:00:00 0.3 0.2 0.4 0 6688 -8.97 -9.12 -8.86 0 0 0
2018-02-25 08:00:00 0.1 0.1 0.3 0 6660 -9 -9.16 -8.81 0 0 0
2018-02-25 09:00:00 0.1 0 0.2 0 7030 -8.23 -8.75 -7.39 0 0 0
2018-02-25 10:00:00 0 0 0 0 7206 -6.46 -7.43 -5.69 0 0 0
2018-02-25 11:00:00 0 -0.1 0.1 0 7206 -5.17 -5.49 -4.61 0 0 0
2018-02-25 12:00:00 0 -0.1 0.1 0 7226 -4.04 -4.94 -2.89 0 0 0